sensor_id;sensor_type;location;lat;lon;timestamp;P1;durP1;ratioP1;P2;durP2;ratioP2
26702;SDS011;14316;51.074;3.704;2024-03-02T00:00:19;3.72;;;1.55;;
26702;SDS011;14316;51.074;3.704;2024-03-02T00:02:50;2.23;;;1.10;;
26702;SDS011;14316;51.074;3.704;2024-03-02T00:05:20;5.82;;;1.90;;
26702;SDS011;14316;51.074;3.704;2024-03-02T00:07:59;3.75;;;1.65;;
26702;SDS011;14316;51.074;3.704;2024-03-02T00:10:26;2.42;;;1.70;;
26702;SDS011;14316;51.074;3.704;2024-03-02T00:13:00;1.33;;;1.10;;
26702;SDS011;14316;51.074;3.704;2024-03-02T00:17:55;1.52;;;1.40;;
26702;SDS011;14316;51.074;3.704;2024-03-02T00:20:22;3.80;;;1.65;;
26702;SDS011;14316;51.074;3.704;2024-03-02T00:22:51;3.47;;;1.63;;
26702;SDS011;14316;51.074;3.704;2024-03-02T00:25:16;1.38;;;1.27;;
26702;SDS011;14316;51.074;3.704;2024-03-02T00:27:47;2.55;;;1.95;;
26702;SDS011;14316;51.074;3.704;2024-03-02T00:33:07;2.25;;;1.58;;
26702;SDS011;14316;51.074;3.704;2024-03-02T00:35:33;3.53;;;1.80;;
26702;SDS011;14316;51.074;3.704;2024-03-02T00:38:03;2.83;;;1.60;;
26702;SDS011;14316;51.074;3.704;2024-03-02T00:40:32;3.50;;;1.42;;
26702;SDS011;14316;51.074;3.704;2024-03-02T00:42:58;4.68;;;1.40;;
26702;SDS011;14316;51.074;3.704;2024-03-02T00:45:25;1.88;;;1.30;;
26702;SDS011;14316;51.074;3.704;2024-03-02T00:47:51;3.50;;;1.17;;
26702;SDS011;14316;51.074;3.704;2024-03-02T00:50:18;4.10;;;1.70;;
26702;SDS011;14316;51.074;3.704;2024-03-02T00:52:44;1.23;;;1.05;;
26702;SDS011;14316;51.074;3.704;2024-03-02T00:55:13;2.88;;;1.50;;
26702;SDS011;14316;51.074;3.704;2024-03-02T00:57:39;2.25;;;1.33;;
26702;SDS011;14316;51.074;3.704;2024-03-02T01:00:05;2.78;;;1.40;;
26702;SDS011;14316;51.074;3.704;2024-03-02T01:02:35;2.47;;;1.50;;
26702;SDS011;14316;51.074;3.704;2024-03-02T01:05:01;4.75;;;1.42;;
26702;SDS011;14316;51.074;3.704;2024-03-02T01:07:27;1.85;;;1.60;;
26702;SDS011;14316;51.074;3.704;2024-03-02T01:09:53;2.40;;;1.70;;
26702;SDS011;14316;51.074;3.704;2024-03-02T01:12:19;2.88;;;2.10;;
26702;SDS011;14316;51.074;3.704;2024-03-02T01:14:45;2.03;;;1.80;;
26702;SDS011;14316;51.074;3.704;2024-03-02T01:17:10;4.03;;;2.10;;
26702;SDS011;14316;51.074;3.704;2024-03-02T01:19:36;2.15;;;1.65;;
26702;SDS011;14316;51.074;3.704;2024-03-02T01:22:03;2.67;;;1.80;;
26702;SDS011;14316;51.074;3.704;2024-03-02T01:24:29;2.83;;;1.90;;
26702;SDS011;14316;51.074;3.704;2024-03-02T01:26:55;3.72;;;2.00;;
26702;SDS011;14316;51.074;3.704;2024-03-02T01:29:21;3.20;;;2.13;;
26702;SDS011;14316;51.074;3.704;2024-03-02T01:31:47;3.60;;;2.08;;
26702;SDS011;14316;51.074;3.704;2024-03-02T01:34:13;4.65;;;1.80;;
26702;SDS011;14316;51.074;3.704;2024-03-02T01:36:39;6.55;;;2.25;;
26702;SDS011;14316;51.074;3.704;2024-03-02T01:39:05;4.30;;;2.20;;
26702;SDS011;14316;51.074;3.704;2024-03-02T01:41:34;4.78;;;2.55;;
26702;SDS011;14316;51.074;3.704;2024-03-02T01:44:00;2.95;;;1.83;;
26702;SDS011;14316;51.074;3.704;2024-03-02T01:46:26;1.73;;;1.38;;
26702;SDS011;14316;51.074;3.704;2024-03-02T01:48:52;3.28;;;2.10;;
26702;SDS011;14316;51.074;3.704;2024-03-02T01:51:18;3.92;;;1.88;;
26702;SDS011;14316;51.074;3.704;2024-03-02T01:53:44;3.13;;;2.15;;
26702;SDS011;14316;51.074;3.704;2024-03-02T01:56:10;4.65;;;2.28;;
26702;SDS011;14316;51.074;3.704;2024-03-02T01:58:36;5.35;;;2.40;;
26702;SDS011;14316;51.074;3.704;2024-03-02T02:01:02;8.80;;;2.58;;
26702;SDS011;14316;51.074;3.704;2024-03-02T02:03:28;5.18;;;3.08;;
26702;SDS011;14316;51.074;3.704;2024-03-02T02:05:54;7.43;;;2.45;;
26702;SDS011;14316;51.074;3.704;2024-03-02T02:08:21;5.43;;;2.78;;
26702;SDS011;14316;51.074;3.704;2024-03-02T02:10:49;3.72;;;2.50;;
26702;SDS011;14316;51.074;3.704;2024-03-02T02:13:15;3.05;;;2.17;;
26702;SDS011;14316;51.074;3.704;2024-03-02T02:15:41;5.03;;;3.03;;
26702;SDS011;14316;51.074;3.704;2024-03-02T02:18:07;4.57;;;3.00;;
26702;SDS011;14316;51.074;3.704;2024-03-02T02:20:33;4.18;;;3.13;;
26702;SDS011;14316;51.074;3.704;2024-03-02T02:23:00;5.20;;;2.92;;
26702;SDS011;14316;51.074;3.704;2024-03-02T02:25:27;5.82;;;3.47;;
26702;SDS011;14316;51.074;3.704;2024-03-02T02:27:54;5.55;;;3.58;;
26702;SDS011;14316;51.074;3.704;2024-03-02T02:30:28;7.25;;;3.50;;
26702;SDS011;14316;51.074;3.704;2024-03-02T02:32:55;7.88;;;3.00;;
26702;SDS011;14316;51.074;3.704;2024-03-02T02:35:21;7.72;;;3.78;;
26702;SDS011;14316;51.074;3.704;2024-03-02T02:37:49;5.15;;;3.72;;
26702;SDS011;14316;51.074;3.704;2024-03-02T02:40:15;8.73;;;3.60;;
26702;SDS011;14316;51.074;3.704;2024-03-02T02:42:44;6.35;;;3.50;;
26702;SDS011;14316;51.074;3.704;2024-03-02T02:45:09;3.67;;;2.80;;
26702;SDS011;14316;51.074;3.704;2024-03-02T02:47:38;7.53;;;4.00;;
26702;SDS011;14316;51.074;3.704;2024-03-02T02:50:04;7.32;;;3.83;;
26702;SDS011;14316;51.074;3.704;2024-03-02T02:52:32;7.07;;;3.55;;
26702;SDS011;14316;51.074;3.704;2024-03-02T02:55:01;6.95;;;3.72;;
26702;SDS011;14316;51.074;3.704;2024-03-02T02:57:31;4.88;;;3.38;;
26702;SDS011;14316;51.074;3.704;2024-03-02T03:00:01;7.57;;;3.80;;
26702;SDS011;14316;51.074;3.704;2024-03-02T03:02:30;7.65;;;3.17;;
26702;SDS011;14316;51.074;3.704;2024-03-02T03:04:56;6.10;;;3.17;;
26702;SDS011;14316;51.074;3.704;2024-03-02T03:07:22;7.25;;;3.65;;
26702;SDS011;14316;51.074;3.704;2024-03-02T03:09:48;5.28;;;2.80;;
26702;SDS011;14316;51.074;3.704;2024-03-02T03:12:14;7.82;;;3.30;;
26702;SDS011;14316;51.074;3.704;2024-03-02T03:14:40;6.55;;;3.13;;
26702;SDS011;14316;51.074;3.704;2024-03-02T03:17:06;5.95;;;3.13;;
26702;SDS011;14316;51.074;3.704;2024-03-02T03:19:33;10.02;;;2.72;;
26702;SDS011;14316;51.074;3.704;2024-03-02T03:21:59;6.78;;;3.22;;
26702;SDS011;14316;51.074;3.704;2024-03-02T03:24:25;6.80;;;3.00;;
26702;SDS011;14316;51.074;3.704;2024-03-02T03:26:50;8.13;;;3.40;;
26702;SDS011;14316;51.074;3.704;2024-03-02T03:29:16;10.35;;;2.83;;
26702;SDS011;14316;51.074;3.704;2024-03-02T03:31:42;7.75;;;2.80;;
26702;SDS011;14316;51.074;3.704;2024-03-02T03:34:08;7.82;;;3.35;;
26702;SDS011;14316;51.074;3.704;2024-03-02T03:36:34;9.38;;;3.25;;
26702;SDS011;14316;51.074;3.704;2024-03-02T03:39:00;4.78;;;3.20;;
26702;SDS011;14316;51.074;3.704;2024-03-02T03:41:28;7.20;;;2.83;;
26702;SDS011;14316;51.074;3.704;2024-03-02T03:43:54;6.65;;;2.90;;
26702;SDS011;14316;51.074;3.704;2024-03-02T03:46:20;8.48;;;2.83;;
26702;SDS011;14316;51.074;3.704;2024-03-02T03:48:46;6.22;;;2.70;;
26702;SDS011;14316;51.074;3.704;2024-03-02T03:51:12;6.22;;;2.72;;
26702;SDS011;14316;51.074;3.704;2024-03-02T03:53:38;5.55;;;2.58;;
26702;SDS011;14316;51.074;3.704;2024-03-02T03:56:04;5.32;;;2.67;;
26702;SDS011;14316;51.074;3.704;2024-03-02T03:58:30;4.13;;;2.05;;
26702;SDS011;14316;51.074;3.704;2024-03-02T04:00:56;4.30;;;2.58;;
26702;SDS011;14316;51.074;3.704;2024-03-02T04:03:22;6.38;;;2.58;;
26702;SDS011;14316;51.074;3.704;2024-03-02T04:05:47;5.15;;;1.48;;
26702;SDS011;14316;51.074;3.704;2024-03-02T04:08:13;8.98;;;2.85;;
26702;SDS011;14316;51.074;3.704;2024-03-02T04:10:39;7.22;;;2.25;;
26702;SDS011;14316;51.074;3.704;2024-03-02T04:13:07;6.25;;;3.05;;
26702;SDS011;14316;51.074;3.704;2024-03-02T04:15:33;3.42;;;1.75;;
26702;SDS011;14316;51.074;3.704;2024-03-02T04:17:59;3.45;;;2.33;;
26702;SDS011;14316;51.074;3.704;2024-03-02T04:20:24;5.95;;;2.58;;
26702;SDS011;14316;51.074;3.704;2024-03-02T04:22:50;7.28;;;2.28;;
26702;SDS011;14316;51.074;3.704;2024-03-02T04:25:16;5.97;;;2.38;;
26702;SDS011;14316;51.074;3.704;2024-03-02T04:27:42;4.30;;;2.05;;
26702;SDS011;14316;51.074;3.704;2024-03-02T04:30:08;3.63;;;2.30;;
26702;SDS011;14316;51.074;3.704;2024-03-02T04:32:34;4.28;;;1.75;;
26702;SDS011;14316;51.074;3.704;2024-03-02T04:35:01;6.18;;;2.40;;
26702;SDS011;14316;51.074;3.704;2024-03-02T04:37:27;3.88;;;2.08;;
26702;SDS011;14316;51.074;3.704;2024-03-02T04:39:53;3.22;;;2.05;;
26702;SDS011;14316;51.074;3.704;2024-03-02T04:42:19;8.75;;;2.50;;
26702;SDS011;14316;51.074;3.704;2024-03-02T04:44:45;8.65;;;3.30;;
26702;SDS011;14316;51.074;3.704;2024-03-02T04:47:11;6.57;;;2.22;;
26702;SDS011;14316;51.074;3.704;2024-03-02T04:49:37;6.55;;;2.15;;
26702;SDS011;14316;51.074;3.704;2024-03-02T04:52:03;5.10;;;2.08;;
26702;SDS011;14316;51.074;3.704;2024-03-02T04:54:29;5.55;;;2.65;;
26702;SDS011;14316;51.074;3.704;2024-03-02T04:56:55;5.45;;;2.30;;
26702;SDS011;14316;51.074;3.704;2024-03-02T04:59:21;6.35;;;2.50;;
26702;SDS011;14316;51.074;3.704;2024-03-02T05:01:47;3.75;;;1.88;;
26702;SDS011;14316;51.074;3.704;2024-03-02T05:04:13;5.00;;;2.35;;
26702;SDS011;14316;51.074;3.704;2024-03-02T05:06:39;6.40;;;2.53;;
26702;SDS011;14316;51.074;3.704;2024-03-02T05:09:05;6.82;;;2.30;;
26702;SDS011;14316;51.074;3.704;2024-03-02T05:11:32;4.25;;;2.00;;
26702;SDS011;14316;51.074;3.704;2024-03-02T05:14:04;4.57;;;2.00;;
26702;SDS011;14316;51.074;3.704;2024-03-02T05:16:34;6.20;;;2.10;;
26702;SDS011;14316;51.074;3.704;2024-03-02T05:19:00;6.30;;;2.25;;
26702;SDS011;14316;51.074;3.704;2024-03-02T05:21:26;5.32;;;2.17;;
26702;SDS011;14316;51.074;3.704;2024-03-02T05:23:52;8.48;;;2.30;;
26702;SDS011;14316;51.074;3.704;2024-03-02T05:26:18;5.82;;;1.92;;
26702;SDS011;14316;51.074;3.704;2024-03-02T05:28:44;5.45;;;2.08;;
26702;SDS011;14316;51.074;3.704;2024-03-02T05:31:10;4.90;;;2.20;;
26702;SDS011;14316;51.074;3.704;2024-03-02T05:33:39;7.07;;;2.10;;
26702;SDS011;14316;51.074;3.704;2024-03-02T05:36:06;6.53;;;2.25;;
26702;SDS011;14316;51.074;3.704;2024-03-02T05:38:34;4.60;;;2.28;;
26702;SDS011;14316;51.074;3.704;2024-03-02T05:41:00;6.15;;;2.13;;
26702;SDS011;14316;51.074;3.704;2024-03-02T05:43:26;5.50;;;2.20;;
26702;SDS011;14316;51.074;3.704;2024-03-02T05:45:52;9.85;;;2.95;;
26702;SDS011;14316;51.074;3.704;2024-03-02T05:48:18;9.00;;;3.20;;
26702;SDS011;14316;51.074;3.704;2024-03-02T05:50:44;9.27;;;2.65;;
26702;SDS011;14316;51.074;3.704;2024-03-02T05:53:10;6.60;;;2.42;;
26702;SDS011;14316;51.074;3.704;2024-03-02T05:55:36;8.10;;;2.80;;
26702;SDS011;14316;51.074;3.704;2024-03-02T05:58:01;5.13;;;2.53;;
26702;SDS011;14316;51.074;3.704;2024-03-02T06:00:30;7.68;;;2.15;;
26702;SDS011;14316;51.074;3.704;2024-03-02T06:02:56;5.25;;;2.33;;
26702;SDS011;14316;51.074;3.704;2024-03-02T06:05:23;4.88;;;1.80;;
26702;SDS011;14316;51.074;3.704;2024-03-02T06:07:48;5.80;;;2.55;;
26702;SDS011;14316;51.074;3.704;2024-03-02T06:10:14;5.40;;;2.42;;
26702;SDS011;14316;51.074;3.704;2024-03-02T06:12:40;6.75;;;2.42;;
26702;SDS011;14316;51.074;3.704;2024-03-02T06:15:06;8.15;;;2.80;;
26702;SDS011;14316;51.074;3.704;2024-03-02T06:17:32;9.75;;;3.03;;
26702;SDS011;14316;51.074;3.704;2024-03-02T06:20:00;8.27;;;2.80;;
26702;SDS011;14316;51.074;3.704;2024-03-02T06:22:27;4.53;;;2.22;;
26702;SDS011;14316;51.074;3.704;2024-03-02T06:24:52;8.32;;;2.70;;
26702;SDS011;14316;51.074;3.704;2024-03-02T06:27:18;8.18;;;2.40;;
26702;SDS011;14316;51.074;3.704;2024-03-02T06:29:44;5.93;;;2.30;;
26702;SDS011;14316;51.074;3.704;2024-03-02T06:32:09;9.15;;;3.08;;
26702;SDS011;14316;51.074;3.704;2024-03-02T06:34:36;11.73;;;3.55;;
26702;SDS011;14316;51.074;3.704;2024-03-02T06:37:01;15.50;;;3.50;;
26702;SDS011;14316;51.074;3.704;2024-03-02T06:39:28;6.38;;;2.80;;
26702;SDS011;14316;51.074;3.704;2024-03-02T06:41:54;11.52;;;3.50;;
26702;SDS011;14316;51.074;3.704;2024-03-02T06:44:20;7.25;;;2.70;;
26702;SDS011;14316;51.074;3.704;2024-03-02T06:46:46;7.10;;;2.33;;
26702;SDS011;14316;51.074;3.704;2024-03-02T06:49:12;6.57;;;3.13;;
26702;SDS011;14316;51.074;3.704;2024-03-02T06:51:37;10.98;;;3.58;;
26702;SDS011;14316;51.074;3.704;2024-03-02T06:54:03;7.30;;;2.83;;
26702;SDS011;14316;51.074;3.704;2024-03-02T06:56:29;8.45;;;2.85;;
26702;SDS011;14316;51.074;3.704;2024-03-02T06:58:55;8.80;;;3.17;;
26702;SDS011;14316;51.074;3.704;2024-03-02T07:01:21;8.18;;;2.45;;
26702;SDS011;14316;51.074;3.704;2024-03-02T07:03:47;9.05;;;2.42;;
26702;SDS011;14316;51.074;3.704;2024-03-02T07:06:13;9.95;;;2.28;;
26702;SDS011;14316;51.074;3.704;2024-03-02T07:08:39;8.90;;;2.63;;
26702;SDS011;14316;51.074;3.704;2024-03-02T07:11:05;7.10;;;2.47;;
26702;SDS011;14316;51.074;3.704;2024-03-02T07:13:30;10.10;;;2.53;;
26702;SDS011;14316;51.074;3.704;2024-03-02T07:15:56;7.38;;;2.38;;
26702;SDS011;14316;51.074;3.704;2024-03-02T07:18:25;7.88;;;2.33;;
26702;SDS011;14316;51.074;3.704;2024-03-02T07:20:50;7.95;;;2.10;;
26702;SDS011;14316;51.074;3.704;2024-03-02T07:23:16;6.45;;;2.20;;
26702;SDS011;14316;51.074;3.704;2024-03-02T07:25:42;9.25;;;2.60;;
26702;SDS011;14316;51.074;3.704;2024-03-02T07:28:07;9.27;;;2.90;;
26702;SDS011;14316;51.074;3.704;2024-03-02T07:30:33;8.10;;;2.63;;
26702;SDS011;14316;51.074;3.704;2024-03-02T07:32:59;7.95;;;2.30;;
26702;SDS011;14316;51.074;3.704;2024-03-02T07:35:25;8.52;;;2.53;;
26702;SDS011;14316;51.074;3.704;2024-03-02T07:37:56;10.07;;;2.40;;
26702;SDS011;14316;51.074;3.704;2024-03-02T07:40:23;8.13;;;2.30;;
26702;SDS011;14316;51.074;3.704;2024-03-02T07:42:49;7.45;;;2.28;;
26702;SDS011;14316;51.074;3.704;2024-03-02T07:45:15;7.38;;;2.13;;
26702;SDS011;14316;51.074;3.704;2024-03-02T07:47:41;7.68;;;2.58;;
26702;SDS011;14316;51.074;3.704;2024-03-02T07:50:07;6.25;;;1.80;;
26702;SDS011;14316;51.074;3.704;2024-03-02T07:52:34;9.25;;;2.22;;
26702;SDS011;14316;51.074;3.704;2024-03-02T07:55:00;9.57;;;1.92;;
26702;SDS011;14316;51.074;3.704;2024-03-02T07:57:26;5.85;;;1.90;;
26702;SDS011;14316;51.074;3.704;2024-03-02T07:59:51;6.82;;;1.80;;
26702;SDS011;14316;51.074;3.704;2024-03-02T08:02:17;10.25;;;2.17;;
26702;SDS011;14316;51.074;3.704;2024-03-02T08:04:43;8.45;;;2.10;;
26702;SDS011;14316;51.074;3.704;2024-03-02T08:07:11;9.77;;;2.60;;
26702;SDS011;14316;51.074;3.704;2024-03-02T08:09:37;7.55;;;2.22;;
26702;SDS011;14316;51.074;3.704;2024-03-02T08:12:03;8.80;;;2.42;;
26702;SDS011;14316;51.074;3.704;2024-03-02T08:14:29;8.85;;;2.03;;
26702;SDS011;14316;51.074;3.704;2024-03-02T08:16:55;6.60;;;2.28;;
26702;SDS011;14316;51.074;3.704;2024-03-02T08:19:21;5.63;;;1.90;;
26702;SDS011;14316;51.074;3.704;2024-03-02T08:21:48;7.32;;;2.58;;
26702;SDS011;14316;51.074;3.704;2024-03-02T08:24:14;6.43;;;2.35;;
26702;SDS011;14316;51.074;3.704;2024-03-02T08:26:39;10.73;;;2.78;;
26702;SDS011;14316;51.074;3.704;2024-03-02T08:29:05;9.18;;;2.50;;
26702;SDS011;14316;51.074;3.704;2024-03-02T08:31:31;7.78;;;2.30;;
26702;SDS011;14316;51.074;3.704;2024-03-02T08:33:57;8.48;;;2.05;;
26702;SDS011;14316;51.074;3.704;2024-03-02T08:36:23;10.60;;;2.92;;
26702;SDS011;14316;51.074;3.704;2024-03-02T08:38:50;10.05;;;2.78;;
26702;SDS011;14316;51.074;3.704;2024-03-02T08:41:16;11.25;;;2.80;;
26702;SDS011;14316;51.074;3.704;2024-03-02T08:43:42;7.00;;;2.30;;
26702;SDS011;14316;51.074;3.704;2024-03-02T08:46:08;8.30;;;2.25;;
26702;SDS011;14316;51.074;3.704;2024-03-02T08:48:34;9.85;;;2.30;;
26702;SDS011;14316;51.074;3.704;2024-03-02T08:51:00;8.32;;;2.08;;
26702;SDS011;14316;51.074;3.704;2024-03-02T08:53:27;10.43;;;3.08;;
26702;SDS011;14316;51.074;3.704;2024-03-02T08:55:53;10.40;;;2.50;;
26702;SDS011;14316;51.074;3.704;2024-03-02T08:58:20;11.95;;;2.47;;
26702;SDS011;14316;51.074;3.704;2024-03-02T09:00:46;12.55;;;2.90;;
26702;SDS011;14316;51.074;3.704;2024-03-02T09:03:12;10.43;;;2.58;;
26702;SDS011;14316;51.074;3.704;2024-03-02T09:05:38;10.27;;;3.17;;
26702;SDS011;14316;51.074;3.704;2024-03-02T09:08:04;9.57;;;3.13;;
26702;SDS011;14316;51.074;3.704;2024-03-02T09:10:30;11.43;;;2.80;;
26702;SDS011;14316;51.074;3.704;2024-03-02T09:12:56;9.35;;;2.60;;
26702;SDS011;14316;51.074;3.704;2024-03-02T09:15:23;6.75;;;2.58;;
26702;SDS011;14316;51.074;3.704;2024-03-02T09:17:49;13.57;;;2.63;;
26702;SDS011;14316;51.074;3.704;2024-03-02T09:20:14;10.85;;;2.88;;
26702;SDS011;14316;51.074;3.704;2024-03-02T09:22:41;8.73;;;2.38;;
26702;SDS011;14316;51.074;3.704;2024-03-02T09:25:07;11.75;;;3.53;;
26702;SDS011;14316;51.074;3.704;2024-03-02T09:27:37;13.18;;;5.45;;
26702;SDS011;14316;51.074;3.704;2024-03-02T09:30:04;8.18;;;4.10;;
26702;SDS011;14316;51.074;3.704;2024-03-02T09:32:33;10.52;;;4.93;;
26702;SDS011;14316;51.074;3.704;2024-03-02T09:34:59;10.05;;;3.53;;
26702;SDS011;14316;51.074;3.704;2024-03-02T09:37:25;15.07;;;4.15;;
26702;SDS011;14316;51.074;3.704;2024-03-02T09:39:52;10.00;;;2.83;;
26702;SDS011;14316;51.074;3.704;2024-03-02T09:42:17;10.02;;;3.03;;
26702;SDS011;14316;51.074;3.704;2024-03-02T09:44:44;9.30;;;2.90;;
26702;SDS011;14316;51.074;3.704;2024-03-02T09:47:11;8.25;;;2.35;;
26702;SDS011;14316;51.074;3.704;2024-03-02T09:49:37;8.48;;;2.47;;
26702;SDS011;14316;51.074;3.704;2024-03-02T09:52:02;9.75;;;2.92;;
26702;SDS011;14316;51.074;3.704;2024-03-02T09:54:30;9.65;;;2.90;;
26702;SDS011;14316;51.074;3.704;2024-03-02T09:56:56;8.82;;;2.72;;
26702;SDS011;14316;51.074;3.704;2024-03-02T09:59:21;7.28;;;2.47;;
26702;SDS011;14316;51.074;3.704;2024-03-02T10:01:57;11.77;;;3.08;;
26702;SDS011;14316;51.074;3.704;2024-03-02T10:04:25;10.43;;;3.10;;
26702;SDS011;14316;51.074;3.704;2024-03-02T10:06:52;10.68;;;2.90;;
26702;SDS011;14316;51.074;3.704;2024-03-02T10:09:42;12.25;;;3.38;;
26702;SDS011;14316;51.074;3.704;2024-03-02T10:12:10;9.20;;;2.72;;
26702;SDS011;14316;51.074;3.704;2024-03-02T10:14:37;6.07;;;2.55;;
26702;SDS011;14316;51.074;3.704;2024-03-02T10:17:04;7.20;;;2.53;;
26702;SDS011;14316;51.074;3.704;2024-03-02T10:19:32;7.05;;;2.88;;
26702;SDS011;14316;51.074;3.704;2024-03-02T10:22:00;9.70;;;2.67;;
26702;SDS011;14316;51.074;3.704;2024-03-02T10:24:28;7.35;;;2.58;;
26702;SDS011;14316;51.074;3.704;2024-03-02T10:27:11;9.27;;;2.60;;
26702;SDS011;14316;51.074;3.704;2024-03-02T10:29:41;12.47;;;3.13;;
26702;SDS011;14316;51.074;3.704;2024-03-02T10:32:08;9.40;;;2.70;;
26702;SDS011;14316;51.074;3.704;2024-03-02T10:34:36;12.43;;;3.85;;
26702;SDS011;14316;51.074;3.704;2024-03-02T10:37:03;11.10;;;2.80;;
26702;SDS011;14316;51.074;3.704;2024-03-02T10:39:30;10.00;;;2.90;;
26702;SDS011;14316;51.074;3.704;2024-03-02T10:41:56;12.55;;;2.65;;
26702;SDS011;14316;51.074;3.704;2024-03-02T10:44:23;9.07;;;2.67;;
26702;SDS011;14316;51.074;3.704;2024-03-02T10:46:51;10.18;;;2.72;;
26702;SDS011;14316;51.074;3.704;2024-03-02T10:49:19;13.60;;;3.20;;
26702;SDS011;14316;51.074;3.704;2024-03-02T10:51:47;11.23;;;2.65;;
26702;SDS011;14316;51.074;3.704;2024-03-02T10:54:13;9.48;;;3.08;;
26702;SDS011;14316;51.074;3.704;2024-03-02T10:56:40;10.98;;;2.97;;
26702;SDS011;14316;51.074;3.704;2024-03-02T11:01:58;7.53;;;2.65;;
26702;SDS011;14316;51.074;3.704;2024-03-02T11:04:26;8.20;;;2.40;;
26702;SDS011;14316;51.074;3.704;2024-03-02T11:07:00;7.57;;;3.25;;
26702;SDS011;14316;51.074;3.704;2024-03-02T11:09:33;9.27;;;3.55;;
26702;SDS011;14316;51.074;3.704;2024-03-02T11:12:06;8.75;;;3.28;;
26702;SDS011;14316;51.074;3.704;2024-03-02T11:14:40;6.03;;;2.65;;
26702;SDS011;14316;51.074;3.704;2024-03-02T11:17:13;11.23;;;3.80;;
26702;SDS011;14316;51.074;3.704;2024-03-02T11:19:43;10.48;;;3.97;;
26702;SDS011;14316;51.074;3.704;2024-03-02T11:22:10;12.70;;;3.70;;
26702;SDS011;14316;51.074;3.704;2024-03-02T11:24:38;14.95;;;3.53;;
26702;SDS011;14316;51.074;3.704;2024-03-02T11:27:06;11.43;;;4.47;;
26702;SDS011;14316;51.074;3.704;2024-03-02T11:32:05;10.27;;;3.60;;
26702;SDS011;14316;51.074;3.704;2024-03-02T11:34:42;8.93;;;2.80;;
26702;SDS011;14316;51.074;3.704;2024-03-02T11:37:14;8.18;;;3.90;;
26702;SDS011;14316;51.074;3.704;2024-03-02T11:39:45;11.75;;;3.38;;
26702;SDS011;14316;51.074;3.704;2024-03-02T11:42:12;10.85;;;2.92;;
26702;SDS011;14316;51.074;3.704;2024-03-02T11:44:45;8.00;;;2.78;;
26702;SDS011;14316;51.074;3.704;2024-03-02T11:47:13;8.68;;;3.10;;
26702;SDS011;14316;51.074;3.704;2024-03-02T11:49:48;6.72;;;2.80;;
26702;SDS011;14316;51.074;3.704;2024-03-02T11:52:16;8.27;;;2.58;;
26702;SDS011;14316;51.074;3.704;2024-03-02T11:54:44;7.90;;;2.72;;
26702;SDS011;14316;51.074;3.704;2024-03-02T11:57:17;10.07;;;3.40;;
26702;SDS011;14316;51.074;3.704;2024-03-02T11:59:45;9.38;;;2.75;;
26702;SDS011;14316;51.074;3.704;2024-03-02T12:02:19;10.98;;;3.53;;
26702;SDS011;14316;51.074;3.704;2024-03-02T12:04:46;12.77;;;3.50;;
26702;SDS011;14316;51.074;3.704;2024-03-02T12:07:20;13.98;;;3.45;;
26702;SDS011;14316;51.074;3.704;2024-03-02T12:09:47;10.20;;;2.88;;
26702;SDS011;14316;51.074;3.704;2024-03-02T12:12:14;8.30;;;2.83;;
26702;SDS011;14316;51.074;3.704;2024-03-02T12:14:49;9.68;;;2.58;;
26702;SDS011;14316;51.074;3.704;2024-03-02T12:17:17;7.03;;;2.45;;
26702;SDS011;14316;51.074;3.704;2024-03-02T12:19:44;8.75;;;2.53;;
26702;SDS011;14316;51.074;3.704;2024-03-02T12:22:11;7.85;;;2.35;;
26702;SDS011;14316;51.074;3.704;2024-03-02T12:24:37;9.68;;;2.85;;
26702;SDS011;14316;51.074;3.704;2024-03-02T12:27:03;7.65;;;3.60;;
26702;SDS011;14316;51.074;3.704;2024-03-02T12:29:32;9.32;;;3.35;;
26702;SDS011;14316;51.074;3.704;2024-03-02T12:31:59;11.63;;;3.83;;
26702;SDS011;14316;51.074;3.704;2024-03-02T12:34:27;9.43;;;3.20;;
26702;SDS011;14316;51.074;3.704;2024-03-02T12:36:53;7.30;;;3.08;;
26702;SDS011;14316;51.074;3.704;2024-03-02T12:39:19;12.95;;;3.35;;
26702;SDS011;14316;51.074;3.704;2024-03-02T12:41:46;11.27;;;2.92;;
26702;SDS011;14316;51.074;3.704;2024-03-02T12:44:12;6.85;;;3.03;;
26702;SDS011;14316;51.074;3.704;2024-03-02T12:46:38;8.02;;;3.08;;
26702;SDS011;14316;51.074;3.704;2024-03-02T12:49:08;10.40;;;2.72;;
26702;SDS011;14316;51.074;3.704;2024-03-02T12:51:36;10.15;;;3.40;;
26702;SDS011;14316;51.074;3.704;2024-03-02T12:54:05;8.60;;;3.70;;
26702;SDS011;14316;51.074;3.704;2024-03-02T12:56:32;11.75;;;3.35;;
26702;SDS011;14316;51.074;3.704;2024-03-02T12:58:58;8.10;;;3.00;;
26702;SDS011;14316;51.074;3.704;2024-03-02T13:01:25;7.60;;;3.00;;
26702;SDS011;14316;51.074;3.704;2024-03-02T13:03:52;17.13;;;4.10;;
26702;SDS011;14316;51.074;3.704;2024-03-02T13:06:19;8.88;;;2.92;;
26702;SDS011;14316;51.074;3.704;2024-03-02T13:08:46;7.78;;;2.75;;
26702;SDS011;14316;51.074;3.704;2024-03-02T13:11:12;13.27;;;3.53;;
26702;SDS011;14316;51.074;3.704;2024-03-02T13:13:39;9.70;;;3.15;;
26702;SDS011;14316;51.074;3.704;2024-03-02T13:16:08;11.75;;;3.80;;
26702;SDS011;14316;51.074;3.704;2024-03-02T13:18:35;12.93;;;3.60;;
26702;SDS011;14316;51.074;3.704;2024-03-02T13:21:02;9.80;;;3.33;;
26702;SDS011;14316;51.074;3.704;2024-03-02T13:23:28;11.93;;;3.78;;
26702;SDS011;14316;51.074;3.704;2024-03-02T13:25:56;16.85;;;3.78;;
26702;SDS011;14316;51.074;3.704;2024-03-02T13:28:25;11.10;;;3.13;;
26702;SDS011;14316;51.074;3.704;2024-03-02T13:30:51;10.43;;;2.65;;
26702;SDS011;14316;51.074;3.704;2024-03-02T13:33:17;8.77;;;2.83;;
26702;SDS011;14316;51.074;3.704;2024-03-02T13:35:50;10.02;;;3.08;;
26702;SDS011;14316;51.074;3.704;2024-03-02T13:38:19;10.38;;;3.67;;
26702;SDS011;14316;51.074;3.704;2024-03-02T13:40:46;13.20;;;3.63;;
26702;SDS011;14316;51.074;3.704;2024-03-02T13:43:16;11.63;;;4.03;;
26702;SDS011;14316;51.074;3.704;2024-03-02T13:45:44;11.60;;;3.55;;
26702;SDS011;14316;51.074;3.704;2024-03-02T13:48:10;11.13;;;4.53;;
26702;SDS011;14316;51.074;3.704;2024-03-02T13:50:35;10.38;;;4.32;;
26702;SDS011;14316;51.074;3.704;2024-03-02T13:53:01;13.23;;;4.68;;
26702;SDS011;14316;51.074;3.704;2024-03-02T13:55:28;11.52;;;3.95;;
26702;SDS011;14316;51.074;3.704;2024-03-02T13:57:54;11.30;;;4.15;;
26702;SDS011;14316;51.074;3.704;2024-03-02T14:00:20;10.05;;;3.70;;
26702;SDS011;14316;51.074;3.704;2024-03-02T14:02:46;9.52;;;3.83;;
26702;SDS011;14316;51.074;3.704;2024-03-02T14:05:14;11.40;;;4.53;;
26702;SDS011;14316;51.074;3.704;2024-03-02T14:07:41;10.30;;;4.03;;
26702;SDS011;14316;51.074;3.704;2024-03-02T14:10:07;10.55;;;3.70;;
26702;SDS011;14316;51.074;3.704;2024-03-02T14:12:33;10.98;;;3.60;;
26702;SDS011;14316;51.074;3.704;2024-03-02T14:14:59;11.23;;;4.57;;
26702;SDS011;14316;51.074;3.704;2024-03-02T14:17:27;11.70;;;4.53;;
26702;SDS011;14316;51.074;3.704;2024-03-02T14:19:54;14.25;;;5.78;;
26702;SDS011;14316;51.074;3.704;2024-03-02T14:22:20;10.45;;;4.03;;
26702;SDS011;14316;51.074;3.704;2024-03-02T14:24:46;12.52;;;4.38;;
26702;SDS011;14316;51.074;3.704;2024-03-02T14:27:13;11.38;;;3.90;;
26702;SDS011;14316;51.074;3.704;2024-03-02T14:29:39;10.32;;;3.90;;
26702;SDS011;14316;51.074;3.704;2024-03-02T14:32:05;10.23;;;3.42;;
26702;SDS011;14316;51.074;3.704;2024-03-02T14:34:32;12.15;;;4.20;;
26702;SDS011;14316;51.074;3.704;2024-03-02T14:36:58;9.93;;;3.85;;
26702;SDS011;14316;51.074;3.704;2024-03-02T14:39:24;9.77;;;3.60;;
26702;SDS011;14316;51.074;3.704;2024-03-02T14:41:50;13.65;;;3.95;;
26702;SDS011;14316;51.074;3.704;2024-03-02T14:44:16;11.02;;;4.03;;
26702;SDS011;14316;51.074;3.704;2024-03-02T14:46:43;11.80;;;3.75;;
26702;SDS011;14316;51.074;3.704;2024-03-02T14:49:12;9.05;;;3.55;;
26702;SDS011;14316;51.074;3.704;2024-03-02T14:51:38;10.40;;;4.00;;